Time;durP1;ratioP1;P1;durP2;ratioP2;P2;SDS_P1;SDS_P2;PMS_P1;PMS_P2;Temp;Humidity;BMP_temperature;BMP_pressure;BME280_temperature;BME280_humidity;BME280_pressure;Samples;Min_cycle;Max_cycle;Signal;HPM_P1;HPM_P2
2021/08/28 00:00:51;;;;;;;8.70;7.80;;;13.00;99.90;;;;;;2089327;28;20103;-69
2021/08/28 00:01:51;;;;;;;7.60;6.90;;;13.00;99.90;;;;;;2089275;28;20124;-69
2021/08/28 00:02:52;;;;;;;9.18;7.88;;;13.00;99.90;;;;;;2089610;28;20057;-69
2021/08/28 00:03:52;;;;;;;8.45;7.35;;;13.00;99.90;;;;;;2088913;28;20497;-69
2021/08/28 00:04:53;;;;;;;9.98;8.98;;;13.10;99.90;;;;;;2089556;28;20538;-69
2021/08/28 00:05:54;;;;;;;9.05;7.68;;;13.10;99.90;;;;;;2089326;28;20094;-69
2021/08/28 00:06:54;;;;;;;7.80;7.07;;;13.10;99.90;;;;;;2080393;28;20082;-69
2021/08/28 00:07:56;;;;;;;8.07;7.28;;;13.10;99.90;;;;;;2080386;28;20437;-69
2021/08/28 00:08:57;;;;;;;8.45;7.65;;;13.10;99.90;;;;;;2088826;28;20043;-69
2021/08/28 00:09:58;;;;;;;8.80;7.93;;;13.10;99.90;;;;;;2088601;28;20021;-69
2021/08/28 00:10:58;;;;;;;8.60;7.60;;;13.10;99.90;;;;;;2088697;28;20450;-69
2021/08/28 00:11:59;;;;;;;8.55;7.65;;;13.10;99.90;;;;;;2089726;28;20528;-70
2021/08/28 00:13:00;;;;;;;8.30;7.50;;;13.10;99.90;;;;;;2089394;28;20079;-69
2021/08/28 00:14:00;;;;;;;7.70;6.90;;;13.10;99.90;;;;;;2089395;28;20040;-69
2021/08/28 00:15:02;;;;;;;8.10;7.32;;;13.10;99.90;;;;;;2090129;28;20041;-69
2021/08/28 00:16:02;;;;;;;7.70;7.00;;;13.20;99.90;;;;;;2089473;28;20112;-69
2021/08/28 00:17:03;;;;;;;7.72;7.03;;;13.10;99.90;;;;;;2089285;28;20051;-69
2021/08/28 00:18:04;;;;;;;9.73;8.45;;;13.10;99.90;;;;;;2089228;28;20128;-69
2021/08/28 00:19:05;;;;;;;8.57;7.78;;;13.10;99.90;;;;;;2088962;28;20111;-69
2021/08/28 00:20:08;;;;;;;9.05;7.90;;;13.10;99.90;;;;;;2089151;28;20016;-69
2021/08/28 00:21:09;;;;;;;7.68;6.97;;;13.20;99.90;;;;;;2089080;28;20515;-70
2021/08/28 00:22:10;;;;;;;8.25;7.40;;;13.20;99.90;;;;;;2089260;28;20009;-70
2021/08/28 00:23:11;;;;;;;8.00;7.15;;;13.20;99.90;;;;;;2089215;28;20063;-70
2021/08/28 00:24:12;;;;;;;10.80;8.70;;;13.20;99.90;;;;;;2088817;28;20033;-69
2021/08/28 00:25:13;;;;;;;8.60;7.80;;;13.20;99.90;;;;;;2089035;28;20591;-69
2021/08/28 00:26:13;;;;;;;8.10;7.30;;;13.20;99.90;;;;;;2080301;28;20076;-69
2021/08/28 00:27:14;;;;;;;7.68;6.97;;;13.20;99.90;;;;;;2080295;28;20025;-69
2021/08/28 00:28:15;;;;;;;7.57;6.85;;;13.20;99.90;;;;;;2088975;28;20056;-70
2021/08/28 00:29:15;;;;;;;8.27;6.70;;;13.20;99.90;;;;;;2088503;28;20392;-69
2021/08/28 00:30:16;;;;;;;7.72;7.03;;;13.20;99.90;;;;;;2088346;28;20570;-69
2021/08/28 00:31:16;;;;;;;7.32;6.63;;;13.20;99.90;;;;;;2088329;28;20033;-69
2021/08/28 00:32:17;;;;;;;7.50;6.70;;;13.30;99.90;;;;;;2088323;28;20021;-69
2021/08/28 00:33:18;;;;;;;8.60;7.68;;;13.30;99.90;;;;;;2089035;28;20029;-69
2021/08/28 00:34:18;;;;;;;11.05;8.55;;;13.30;99.90;;;;;;2087895;28;20029;-69
2021/08/28 00:35:19;;;;;;;7.85;7.15;;;13.30;99.90;;;;;;2088269;28;20100;-69
2021/08/28 00:36:20;;;;;;;7.32;6.65;;;13.30;99.90;;;;;;2088435;28;20477;-69
2021/08/28 00:37:20;;;;;;;8.00;7.00;;;13.30;99.90;;;;;;2088315;28;20033;-69
2021/08/28 00:38:21;;;;;;;7.60;6.53;;;13.30;99.90;;;;;;2088378;28;20103;-69
2021/08/28 00:39:21;;;;;;;10.13;7.93;;;13.30;99.90;;;;;;2079886;28;20017;-69
2021/08/28 00:40:22;;;;;;;8.05;6.85;;;13.30;99.90;;;;;;2088262;28;20061;-69
2021/08/28 00:41:22;;;;;;;8.55;7.70;;;13.30;99.90;;;;;;2088896;28;20438;-69
2021/08/28 00:42:25;;;;;;;8.48;7.65;;;13.30;99.90;;;;;;2089037;28;20670;-69
2021/08/28 00:43:28;;;;;;;9.70;8.77;;;13.30;99.90;;;;;;2088446;28;20107;-70
2021/08/28 00:44:29;;;;;;;10.80;8.75;;;13.30;99.90;;;;;;2089179;28;20024;-70
2021/08/28 00:45:34;;;;;;;8.80;7.90;;;13.30;99.90;;;;;;2088195;28;20028;-70
2021/08/28 00:46:35;;;;;;;8.75;7.95;;;13.30;99.90;;;;;;2088372;28;20021;-69
2021/08/28 00:47:35;;;;;;;7.75;7.05;;;13.30;99.90;;;;;;2088898;28;20492;-69
2021/08/28 00:48:36;;;;;;;8.13;7.32;;;13.30;99.90;;;;;;2088012;28;20036;-69
2021/08/28 00:49:37;;;;;;;9.57;7.95;;;13.30;99.90;;;;;;2088270;28;20021;-69
2021/08/28 00:50:40;;;;;;;8.57;7.68;;;13.30;99.90;;;;;;2088261;28;20033;-70
2021/08/28 00:51:41;;;;;;;7.75;7.05;;;13.30;99.90;;;;;;2080050;28;20017;-69
2021/08/28 00:52:41;;;;;;;8.95;8.05;;;13.30;99.90;;;;;;2087997;28;20024;-69
2021/08/28 00:53:42;;;;;;;7.82;7.05;;;13.40;99.90;;;;;;2087821;28;20511;-69
2021/08/28 00:54:43;;;;;;;7.80;7.10;;;13.40;99.90;;;;;;2088213;28;20068;-70
2021/08/28 00:55:48;;;;;;;11.65;8.43;;;13.40;99.90;;;;;;2088328;28;20074;-69
2021/08/28 00:56:49;;;;;;;10.90;8.82;;;13.30;99.90;;;;;;2080702;28;20081;-69
2021/08/28 00:57:51;;;;;;;9.10;8.05;;;13.30;99.90;;;;;;2088318;28;20028;-69
2021/08/28 00:58:52;;;;;;;8.55;7.53;;;13.30;99.90;;;;;;2087787;28;20134;-69
2021/08/28 00:59:53;;;;;;;8.23;7.43;;;13.30;99.90;;;;;;2087986;28;20025;-69
2021/08/28 01:01:00;;;;;;;8.93;8.07;;;13.30;99.90;;;;;;2088107;28;20435;-69
2021/08/28 01:02:02;;;;;;;11.35;10.25;;;13.30;99.90;;;;;;2080650;28;20029;-69
2021/08/28 01:03:06;;;;;;;68.90;61.08;;;13.30;99.90;;;;;;2079932;28;20029;-69
2021/08/28 01:04:10;;;;;;;43.20;36.88;;;13.30;99.90;;;;;;2087778;28;20143;-69
2021/08/28 01:05:18;;;;;;;33.92;29.48;;;13.30;99.90;;;;;;2082199;28;20029;-69
2021/08/28 01:06:48;;;;;;;24.25;21.65;;;13.40;99.90;;;;;;2073928;28;20072;-69
2021/08/28 01:08:30;;;;;;;15.57;12.48;;;13.30;99.90;;;;;;2069770;28;20088;-69
2021/08/28 01:10:00;;;;;;;12.77;11.43;;;13.40;99.90;;;;;;2070779;28;20033;-69
2021/08/28 01:11:42;;;;;;;11.10;9.95;;;13.30;99.90;;;;;;2080323;28;20060;-69
2021/08/28 01:12:46;;;;;;;10.02;9.00;;;13.30;99.90;;;;;;2088490;28;20028;-69
2021/08/28 01:13:57;;;;;;;8.93;8.02;;;13.30;99.90;;;;;;2079387;28;20037;-69
2021/08/28 01:15:05;;;;;;;9.00;8.10;;;13.30;99.90;;;;;;2079684;28;20514;-69
2021/08/28 01:16:10;;;;;;;8.80;8.00;;;13.30;99.90;;;;;;2072753;28;20484;-69
2021/08/28 01:17:14;;;;;;;8.80;7.70;;;13.30;99.90;;;;;;2072252;28;20044;-69
2021/08/28 01:18:17;;;;;;;7.93;7.18;;;13.30;99.90;;;;;;2080109;28;20477;-69
2021/08/28 01:19:32;;;;;;;8.10;7.35;;;13.30;99.90;;;;;;2079545;28;20025;-69
2021/08/28 01:20:38;;;;;;;7.70;7.00;;;13.40;99.90;;;;;;2079892;28;20040;-69
2021/08/28 01:21:58;;;;;;;9.20;8.30;;;13.30;99.90;;;;;;2083116;28;20037;-69
2021/08/28 01:23:18;;;;;;;8.52;7.72;;;13.30;99.90;;;;;;2088779;28;20037;-69
2021/08/28 01:24:40;;;;;;;8.05;7.25;;;13.40;99.90;;;;;;2088671;28;20056;-69
2021/08/28 01:26:08;;;;;;;8.10;7.30;;;13.30;99.90;;;;;;2080055;28;20049;-69
2021/08/28 01:27:27;;;;;;;8.35;7.55;;;13.40;99.90;;;;;;2079794;28;20018;-70
2021/08/28 01:28:33;;;;;;;9.25;8.35;;;13.40;99.90;;;;;;2077933;28;20116;-70
2021/08/28 01:29:37;;;;;;;8.50;7.70;;;13.40;99.90;;;;;;2079596;28;20033;-69
2021/08/28 01:30:43;;;;;;;9.15;7.93;;;13.40;99.90;;;;;;2071615;28;20037;-70
2021/08/28 01:31:46;;;;;;;9.05;8.02;;;13.40;99.90;;;;;;2071407;28;20021;-69
2021/08/28 01:32:50;;;;;;;9.50;8.50;;;13.40;99.90;;;;;;2072533;28;20030;-69
2021/08/28 01:33:51;;;;;;;9.70;8.75;;;13.40;99.90;;;;;;2079265;28;20032;-69
2021/08/28 01:34:55;;;;;;;9.27;8.43;;;13.40;99.90;;;;;;2079799;28;20033;-69
2021/08/28 01:35:56;;;;;;;8.93;8.00;;;13.40;99.90;;;;;;2079458;28;20057;-69
2021/08/28 01:37:17;;;;;;;8.63;7.82;;;13.40;99.90;;;;;;2079653;28;20108;-70
2021/08/28 01:38:32;;;;;;;8.32;7.53;;;13.30;99.90;;;;;;2073862;28;20903;-69
2021/08/28 01:39:48;;;;;;;8.45;7.38;;;13.30;99.90;;;;;;2079695;28;20025;-69
2021/08/28 01:40:58;;;;;;;9.63;8.25;;;13.40;99.90;;;;;;2072879;28;20486;-69
2021/08/28 01:42:03;;;;;;;8.38;7.57;;;13.40;99.90;;;;;;2071550;28;20049;-69
2021/08/28 01:43:07;;;;;;;8.35;7.55;;;13.30;99.90;;;;;;2072288;28;20109;-69
2021/08/28 01:44:10;;;;;;;8.45;6.90;;;13.40;99.90;;;;;;2079232;28;20181;-69
2021/08/28 01:45:14;;;;;;;7.57;6.88;;;13.40;99.90;;;;;;2079324;28;20133;-69
2021/08/28 01:46:18;;;;;;;7.32;6.55;;;13.40;99.90;;;;;;2072439;28;20393;-69
2021/08/28 01:47:26;;;;;;;7.45;6.60;;;13.40;99.90;;;;;;2072281;28;20045;-69
2021/08/28 01:48:27;;;;;;;7.18;6.57;;;13.40;99.90;;;;;;2079578;28;20495;-69
2021/08/28 01:49:28;;;;;;;7.60;6.90;;;13.40;99.90;;;;;;2071352;28;20037;-70
2021/08/28 01:50:30;;;;;;;8.50;7.57;;;13.40;99.90;;;;;;2071699;28;20030;-69
2021/08/28 01:51:45;;;;;;;8.15;7.35;;;13.40;99.90;;;;;;2073242;28;20041;-70
2021/08/28 01:53:03;;;;;;;10.13;8.80;;;13.40;99.90;;;;;;2073961;28;20081;-69
2021/08/28 01:54:05;;;;;;;9.50;8.60;;;13.40;99.90;;;;;;2071099;28;20026;-70
2021/08/28 01:55:06;;;;;;;9.23;8.32;;;13.30;99.90;;;;;;2071409;28;20070;-70
2021/08/28 01:56:18;;;;;;;10.15;7.55;;;13.30;99.90;;;;;;2073107;28;20038;-69
2021/08/28 01:57:20;;;;;;;8.65;7.85;;;13.30;99.90;;;;;;2071432;28;20498;-69
2021/08/28 01:58:52;;;;;;;8.88;7.97;;;13.30;99.90;;;;;;2083939;28;20024;-69
2021/08/28 02:00:12;;;;;;;8.38;7.57;;;13.30;99.90;;;;;;2088527;28;20033;-70
2021/08/28 02:01:16;;;;;;;7.65;6.95;;;13.30;99.90;;;;;;2079518;28;20029;-69
2021/08/28 02:02:20;;;;;;;7.28;6.57;;;13.30;99.90;;;;;;2071755;28;20029;-69
2021/08/28 02:03:24;;;;;;;7.70;6.90;;;13.30;99.90;;;;;;2080208;28;20523;-70
2021/08/28 02:04:24;;;;;;;7.00;6.40;;;13.30;99.90;;;;;;2090132;28;20025;-69
2021/08/28 02:05:27;;;;;;;9.75;7.93;;;13.30;99.90;;;;;;2081236;28;20541;-69
2021/08/28 02:06:53;;;;;;;10.18;9.18;;;13.40;99.90;;;;;;2074784;28;20484;-69
2021/08/28 02:08:03;;;;;;;9.48;8.48;;;13.30;99.90;;;;;;2075077;28;20026;-69
2021/08/28 02:09:15;;;;;;;9.57;8.68;;;13.30;99.90;;;;;;2073909;28;20041;-69
2021/08/28 02:10:34;;;;;;;9.63;8.63;;;13.30;99.90;;;;;;2080975;28;20036;-69
2021/08/28 02:11:50;;;;;;;9.02;8.13;;;13.30;99.90;;;;;;2081137;28;20033;-69
2021/08/28 02:12:56;;;;;;;8.90;8.10;;;13.30;99.90;;;;;;2083482;28;20386;-69
2021/08/28 02:14:19;;;;;;;10.20;9.20;;;13.30;99.90;;;;;;2080689;28;20060;-69
2021/08/28 02:15:23;;;;;;;10.25;9.25;;;13.30;99.90;;;;;;2081001;28;20026;-69
2021/08/28 02:16:30;;;;;;;10.50;9.50;;;13.30;99.90;;;;;;2073311;28;20095;-69
2021/08/28 02:17:50;;;;;;;9.70;8.70;;;13.20;99.90;;;;;;2074286;28;20030;-69
2021/08/28 02:19:03;;;;;;;8.85;7.78;;;13.20;99.90;;;;;;2080721;28;20025;-69
2021/08/28 02:20:28;;;;;;;8.93;7.10;;;13.20;99.90;;;;;;2068682;28;20033;-69
2021/08/28 02:21:36;;;;;;;8.07;7.28;;;13.20;99.90;;;;;;2080796;28;20706;-69
2021/08/28 02:22:45;;;;;;;7.55;6.85;;;13.20;99.90;;;;;;2073696;28;20025;-69
2021/08/28 02:24:08;;;;;;;8.38;7.53;;;13.20;99.90;;;;;;2084210;28;20021;-70
2021/08/28 02:25:27;;;;;;;8.52;7.65;;;13.20;99.90;;;;;;2080979;28;20140;-69
2021/08/28 02:26:53;;;;;;;8.27;7.13;;;13.10;99.90;;;;;;2074582;28;20072;-69
2021/08/28 02:28:02;;;;;;;7.38;6.68;;;13.10;99.90;;;;;;2080968;28;20110;-69
2021/08/28 02:29:07;;;;;;;7.47;6.78;;;13.10;99.90;;;;;;2080842;28;20053;-69
2021/08/28 02:30:10;;;;;;;8.02;7.22;;;13.10;99.90;;;;;;2073486;28;20515;-69
2021/08/28 02:31:40;;;;;;;7.10;6.40;;;13.10;99.90;;;;;;2075797;28;20121;-69
2021/08/28 02:32:44;;;;;;;8.70;6.50;;;13.10;99.90;;;;;;2074441;28;20038;-69
2021/08/28 02:33:48;;;;;;;6.55;5.95;;;13.10;99.90;;;;;;2072944;28;20022;-69
2021/08/28 02:34:51;;;;;;;6.50;5.90;;;13.10;99.90;;;;;;2072965;28;20022;-69
2021/08/28 02:35:54;;;;;;;6.80;6.10;;;13.00;99.90;;;;;;2081539;28;20021;-69
2021/08/28 02:36:57;;;;;;;7.05;6.45;;;13.10;99.90;;;;;;2080991;28;20104;-69
2021/08/28 02:37:58;;;;;;;7.22;6.55;;;13.10;99.90;;;;;;2081442;28;20025;-69
2021/08/28 02:39:02;;;;;;;8.63;7.72;;;13.00;99.90;;;;;;2074382;28;20048;-69
2021/08/28 02:40:07;;;;;;;8.02;7.22;;;13.00;99.90;;;;;;2074752;28;20030;-69
2021/08/28 02:41:08;;;;;;;7.75;6.97;;;13.00;99.90;;;;;;2073729;28;20156;-69
2021/08/28 02:42:12;;;;;;;7.47;6.70;;;13.00;99.90;;;;;;2073816;28;20014;-69
2021/08/28 02:43:15;;;;;;;6.80;6.20;;;13.00;99.90;;;;;;2081584;28;20024;-69
2021/08/28 02:44:19;;;;;;;7.63;6.80;;;13.00;99.90;;;;;;2081276;28;20177;-69
2021/08/28 02:45:23;;;;;;;7.07;6.38;;;13.00;99.90;;;;;;2073396;28;20477;-69
2021/08/28 02:46:33;;;;;;;7.53;6.82;;;13.00;99.90;;;;;;2074247;28;20065;-69
2021/08/28 02:47:42;;;;;;;7.10;6.40;;;13.00;99.90;;;;;;2081107;28;20116;-69
2021/08/28 02:48:44;;;;;;;8.90;8.00;;;13.00;99.90;;;;;;2081105;28;20086;-69
2021/08/28 02:49:47;;;;;;;8.27;7.20;;;13.00;99.90;;;;;;2080978;28;20152;-69
2021/08/28 02:51:10;;;;;;;7.38;6.68;;;13.00;99.90;;;;;;2083844;28;20397;-69
2021/08/28 02:52:15;;;;;;;7.78;6.97;;;13.00;99.90;;;;;;2080864;28;20551;-69
2021/08/28 02:53:19;;;;;;;8.80;8.00;;;13.00;99.90;;;;;;2080945;28;20106;-69
2021/08/28 02:54:20;;;;;;;9.70;8.73;;;13.00;99.90;;;;;;2072630;28;20124;-69
2021/08/28 02:55:21;;;;;;;8.95;8.02;;;13.00;99.90;;;;;;2080782;28;20026;-69
2021/08/28 02:56:23;;;;;;;9.43;8.43;;;13.00;99.90;;;;;;2080872;28;20469;-69
2021/08/28 02:57:27;;;;;;;8.68;7.78;;;13.00;99.90;;;;;;2072988;28;20107;-69
2021/08/28 02:58:28;;;;;;;7.97;7.18;;;13.00;99.90;;;;;;2072671;28;20064;-69
2021/08/28 02:59:30;;;;;;;7.95;7.15;;;13.00;99.90;;;;;;2072337;28;20026;-69
2021/08/28 03:00:32;;;;;;;8.70;7.30;;;13.00;99.90;;;;;;2072865;28;20026;-69
2021/08/28 03:01:33;;;;;;;7.82;7.03;;;13.00;99.90;;;;;;2072577;28;20041;-69
2021/08/28 03:02:36;;;;;;;7.55;6.85;;;13.00;99.90;;;;;;2072688;28;20164;-69
2021/08/28 03:03:38;;;;;;;6.90;6.30;;;13.00;99.90;;;;;;2072422;28;20030;-69
2021/08/28 03:04:41;;;;;;;7.55;6.78;;;13.00;99.90;;;;;;2080788;28;20026;-69
2021/08/28 03:05:46;;;;;;;7.40;6.68;;;13.00;99.90;;;;;;2080606;28;20087;-69
2021/08/28 03:06:48;;;;;;;9.30;8.30;;;13.00;99.90;;;;;;2073419;28;20560;-69
2021/08/28 03:07:49;;;;;;;8.82;7.93;;;13.00;99.90;;;;;;2080752;28;20076;-69
2021/08/28 03:08:52;;;;;;;9.38;8.40;;;13.00;99.90;;;;;;2080941;28;20491;-69
2021/08/28 03:09:56;;;;;;;7.85;7.03;;;13.00;99.90;;;;;;2080895;28;20030;-69
2021/08/28 03:11:00;;;;;;;7.82;7.03;;;13.10;99.90;;;;;;2080873;28;20091;-69
2021/08/28 03:12:02;;;;;;;9.30;8.40;;;13.10;99.90;;;;;;2080648;28;20077;-69
2021/08/28 03:13:04;;;;;;;9.85;8.77;;;13.10;99.90;;;;;;2073311;28;20485;-69
2021/08/28 03:14:05;;;;;;;10.10;9.10;;;13.10;99.90;;;;;;2080430;28;20014;-69
2021/08/28 03:15:10;;;;;;;10.35;9.25;;;13.10;99.90;;;;;;2079858;28;20541;-69
2021/08/28 03:16:29;;;;;;;10.27;9.20;;;13.10;99.90;;;;;;2080856;28;20121;-69
2021/08/28 03:17:35;;;;;;;10.18;8.20;;;13.10;99.90;;;;;;2080929;28;20088;-69
2021/08/28 03:18:41;;;;;;;8.35;7.53;;;13.10;99.90;;;;;;2080585;28;20140;-69
2021/08/28 03:19:46;;;;;;;8.45;7.53;;;13.10;99.90;;;;;;2081999;28;20101;-70
2021/08/28 03:20:52;;;;;;;8.25;7.45;;;13.10;99.90;;;;;;2080889;28;20033;-69
2021/08/28 03:21:54;;;;;;;7.93;7.13;;;13.10;99.90;;;;;;2080773;28;20085;-69
2021/08/28 03:22:55;;;;;;;7.88;7.18;;;13.10;99.90;;;;;;2080835;28;20504;-69
2021/08/28 03:24:00;;;;;;;8.45;7.65;;;13.10;99.90;;;;;;2080350;28;20472;-70
2021/08/28 03:25:04;;;;;;;8.63;7.72;;;13.10;99.90;;;;;;2073471;28;20489;-69
2021/08/28 03:26:09;;;;;;;7.47;6.78;;;13.10;99.90;;;;;;2073163;28;20493;-70
2021/08/28 03:27:10;;;;;;;8.70;7.90;;;13.20;99.90;;;;;;2081180;28;20669;-69
2021/08/28 03:28:14;;;;;;;10.02;8.32;;;13.20;99.90;;;;;;2080407;28;20025;-69
2021/08/28 03:29:15;;;;;;;10.15;9.15;;;13.20;99.90;;;;;;2080395;28;20025;-73
2021/08/28 03:30:18;;;;;;;10.02;8.52;;;13.10;99.90;;;;;;2072455;28;20030;-69
2021/08/28 03:31:24;;;;;;;9.18;8.27;;;13.20;99.90;;;;;;2080563;28;20055;-69
2021/08/28 03:32:25;;;;;;;8.93;8.02;;;13.20;99.90;;;;;;2080581;28;20650;-69
2021/08/28 03:33:26;;;;;;;8.23;7.43;;;13.20;99.90;;;;;;2080122;28;20495;-69
2021/08/28 03:34:32;;;;;;;9.70;8.70;;;13.20;99.90;;;;;;2080609;28;20025;-70
2021/08/28 03:35:34;;;;;;;9.30;8.40;;;13.10;99.90;;;;;;2081062;28;20030;-69
2021/08/28 03:36:38;;;;;;;8.43;7.63;;;13.20;99.90;;;;;;2080453;28;20030;-69
2021/08/28 03:37:41;;;;;;;9.00;8.10;;;13.10;99.90;;;;;;2080577;28;20103;-69
2021/08/28 03:38:46;;;;;;;8.48;7.55;;;13.20;99.90;;;;;;2082511;28;20030;-69
2021/08/28 03:39:48;;;;;;;8.20;7.40;;;13.20;99.90;;;;;;2084792;28;20028;-70
2021/08/28 03:40:49;;;;;;;8.65;7.03;;;13.20;99.90;;;;;;2085082;28;20061;-69
2021/08/28 03:41:50;;;;;;;7.97;7.18;;;13.20;99.90;;;;;;2080586;28;20064;-69
2021/08/28 03:42:53;;;;;;;8.18;7.38;;;13.20;99.90;;;;;;2072635;28;20441;-69
2021/08/28 03:43:54;;;;;;;7.43;6.75;;;13.10;99.90;;;;;;2071761;28;20096;-69
2021/08/28 03:44:59;;;;;;;7.38;6.68;;;13.20;99.90;;;;;;2080769;28;20060;-69
2021/08/28 03:46:00;;;;;;;7.80;7.00;;;13.20;99.90;;;;;;2080436;28;20034;-69
2021/08/28 03:47:01;;;;;;;7.25;6.55;;;13.20;99.90;;;;;;2080569;28;20543;-69
2021/08/28 03:48:01;;;;;;;8.13;6.53;;;13.20;99.90;;;;;;2080590;28;20452;-69
2021/08/28 03:49:04;;;;;;;7.93;7.15;;;13.20;99.90;;;;;;2080153;28;20579;-69
2021/08/28 03:50:05;;;;;;;7.88;7.07;;;13.20;99.90;;;;;;2072360;28;20051;-69
2021/08/28 03:51:07;;;;;;;7.40;6.55;;;13.20;99.90;;;;;;2072393;28;20165;-69
2021/08/28 03:52:08;;;;;;;6.90;6.20;;;13.20;99.90;;;;;;2080253;28;20140;-69
2021/08/28 03:53:09;;;;;;;7.43;6.22;;;13.20;99.90;;;;;;2080382;28;20100;-69
2021/08/28 03:54:10;;;;;;;8.25;7.43;;;13.20;99.90;;;;;;2071729;28;20079;-69
2021/08/28 03:55:10;;;;;;;7.18;6.47;;;13.20;99.90;;;;;;2072126;28;20574;-69
2021/08/28 03:56:12;;;;;;;7.65;6.78;;;13.20;99.90;;;;;;2072403;28;20064;-69
2021/08/28 03:57:12;;;;;;;8.23;6.80;;;13.30;99.90;;;;;;2072225;28;20029;-69
2021/08/28 03:58:14;;;;;;;8.35;7.55;;;13.20;99.90;;;;;;2072172;28;20105;-69
2021/08/28 03:59:18;;;;;;;8.40;7.55;;;13.30;99.90;;;;;;2072349;28;20040;-69
2021/08/28 04:00:19;;;;;;;8.20;7.40;;;13.30;99.90;;;;;;2072248;28;20021;-69
2021/08/28 04:01:26;;;;;;;8.85;7.97;;;13.20;99.90;;;;;;2072922;28;20033;-69
2021/08/28 04:02:28;;;;;;;9.55;8.50;;;13.20;99.90;;;;;;2072394;28;20036;-69
2021/08/28 04:03:30;;;;;;;11.20;9.20;;;13.20;99.90;;;;;;2080019;28;20108;-69
2021/08/28 04:04:32;;;;;;;9.52;8.55;;;13.20;99.90;;;;;;2080235;28;20049;-69
2021/08/28 04:05:32;;;;;;;10.23;9.13;;;13.20;99.90;;;;;;2080306;28;20064;-69
2021/08/28 04:06:33;;;;;;;9.77;8.82;;;13.20;99.90;;;;;;2080225;28;20033;-69
2021/08/28 04:07:38;;;;;;;9.75;8.75;;;13.30;99.90;;;;;;2089215;28;20033;-69
2021/08/28 04:08:39;;;;;;;9.48;8.55;;;13.20;99.90;;;;;;2088957;28;20035;-69
2021/08/28 04:09:40;;;;;;;9.38;8.40;;;13.20;99.90;;;;;;2089214;28;20041;-69
2021/08/28 04:10:40;;;;;;;8.70;7.80;;;13.20;99.90;;;;;;2080349;28;20053;-69
2021/08/28 04:11:44;;;;;;;10.13;8.85;;;13.30;99.90;;;;;;2080401;28;20508;-69
2021/08/28 04:12:44;;;;;;;10.07;9.00;;;13.20;99.90;;;;;;2072709;28;20417;-69
2021/08/28 04:13:45;;;;;;;10.40;9.05;;;13.20;99.90;;;;;;2071687;28;20030;-69
2021/08/28 04:14:46;;;;;;;9.40;8.40;;;13.20;99.90;;;;;;2072180;28;20030;-69
2021/08/28 04:15:46;;;;;;;8.50;7.70;;;13.20;99.90;;;;;;2072260;28;20113;-69
2021/08/28 04:16:52;;;;;;;9.00;8.10;;;13.20;99.90;;;;;;2072271;28;20030;-71
2021/08/28 04:17:54;;;;;;;8.60;7.72;;;13.20;99.90;;;;;;2072684;28;20034;-69
2021/08/28 04:18:54;;;;;;;8.63;7.82;;;13.20;99.90;;;;;;2080147;28;20022;-70
2021/08/28 04:20:13;;;;;;;9.35;8.45;;;13.20;99.90;;;;;;2074794;28;20037;-69
2021/08/28 04:21:13;;;;;;;9.90;8.90;;;13.20;99.90;;;;;;2080480;28;20104;-69
2021/08/28 04:22:21;;;;;;;9.48;8.57;;;13.20;99.90;;;;;;2080400;28;20554;-69
2021/08/28 04:23:40;;;;;;;9.02;8.13;;;13.20;99.90;;;;;;2082566;28;20393;-69
2021/08/28 04:24:50;;;;;;;8.80;8.00;;;13.20;99.90;;;;;;2080584;28;20095;-70
2021/08/28 04:26:09;;;;;;;9.15;8.25;;;13.20;99.90;;;;;;2084395;28;20045;-70
2021/08/28 04:27:09;;;;;;;10.30;9.10;;;13.20;99.90;;;;;;2079486;28;20118;-70
2021/08/28 04:28:10;;;;;;;10.45;9.38;;;13.20;99.90;;;;;;2080189;28;20085;-70
2021/08/28 04:29:10;;;;;;;10.38;9.10;;;13.20;99.90;;;;;;2080059;28;20036;-69
2021/08/28 04:30:11;;;;;;;10.95;9.77;;;13.20;99.90;;;;;;2071952;28;20520;-70
2021/08/28 04:31:14;;;;;;;9.93;8.93;;;13.20;99.90;;;;;;2080464;28;20024;-70
2021/08/28 04:32:15;;;;;;;11.25;9.10;;;13.20;99.90;;;;;;2080251;28;20680;-70
2021/08/28 04:33:16;;;;;;;10.57;9.20;;;13.20;99.90;;;;;;2080249;28;20029;-70
2021/08/28 04:34:16;;;;;;;10.32;9.32;;;13.20;99.90;;;;;;2079789;28;20124;-70
2021/08/28 04:35:17;;;;;;;12.60;10.38;;;13.20;99.90;;;;;;2080047;28;20117;-69
2021/08/28 04:36:18;;;;;;;10.43;9.38;;;13.10;99.90;;;;;;2080157;28;20021;-69
2021/08/28 04:37:19;;;;;;;9.43;8.48;;;13.10;99.90;;;;;;2080136;28;20022;-69
2021/08/28 04:38:20;;;;;;;9.52;8.52;;;13.10;99.90;;;;;;2080155;28;20030;-69
2021/08/28 04:39:24;;;;;;;10.30;8.80;;;13.20;99.90;;;;;;2071882;28;20101;-69
2021/08/28 04:40:30;;;;;;;9.70;8.70;;;13.20;99.90;;;;;;2072616;28;20517;-68
2021/08/28 04:41:31;;;;;;;9.75;8.23;;;13.20;99.90;;;;;;2071767;28;20084;-69
2021/08/28 04:42:31;;;;;;;10.77;9.23;;;13.20;99.90;;;;;;2080073;28;20030;-68
2021/08/28 04:43:32;;;;;;;10.13;8.98;;;13.20;99.90;;;;;;2079626;28;20032;-68
2021/08/28 04:45:03;;;;;;;9.75;8.35;;;13.20;99.90;;;;;;2080197;28;20025;-69
2021/08/28 04:46:15;;;;;;;11.95;10.00;;;13.20;99.90;;;;;;2080072;28;20032;-69
2021/08/28 04:47:24;;;;;;;9.50;8.50;;;13.20;99.90;;;;;;2080128;28;20099;-70
2021/08/28 04:48:27;;;;;;;9.52;8.38;;;13.20;99.90;;;;;;2071762;28;20037;-69
2021/08/28 04:49:28;;;;;;;13.70;11.70;;;13.20;99.90;;;;;;2071818;28;20030;-70
2021/08/28 04:50:47;;;;;;;12.95;11.35;;;13.20;99.90;;;;;;2082603;28;20493;-69
2021/08/28 04:51:47;;;;;;;11.25;10.05;;;13.20;99.90;;;;;;2080055;28;20116;-70
2021/08/28 04:52:49;;;;;;;10.60;9.35;;;13.20;99.90;;;;;;2080185;28;20112;-70
2021/08/28 04:53:50;;;;;;;9.82;8.82;;;13.20;99.90;;;;;;2071389;28;20064;-69
2021/08/28 04:54:50;;;;;;;10.15;9.07;;;13.20;99.90;;;;;;2080144;28;20033;-70
2021/08/28 04:55:51;;;;;;;10.55;9.45;;;13.20;99.90;;;;;;2080013;28;20026;-70
2021/08/28 04:56:52;;;;;;;10.80;9.70;;;13.20;99.90;;;;;;2071823;28;20022;-70
2021/08/28 04:57:53;;;;;;;10.35;9.25;;;13.30;99.90;;;;;;2079976;28;20111;-70
2021/08/28 04:58:53;;;;;;;10.90;9.80;;;13.30;99.90;;;;;;2071516;28;20034;-70
2021/08/28 05:00:13;;;;;;;11.32;9.82;;;13.20;99.90;;;;;;2082821;28;20041;-69
2021/08/28 05:01:46;;;;;;;12.30;9.80;;;13.20;99.90;;;;;;2088549;28;20021;-69
2021/08/28 05:03:09;;;;;;;12.07;10.20;;;13.30;99.90;;;;;;2089004;28;20040;-70
2021/08/28 05:04:09;;;;;;;10.38;9.25;;;13.30;99.90;;;;;;2079558;28;20025;-70
2021/08/28 05:05:10;;;;;;;9.88;8.88;;;13.30;99.90;;;;;;2080003;28;20037;-70
2021/08/28 05:06:11;;;;;;;12.35;10.88;;;13.30;99.90;;;;;;2072028;28;20033;-70
2021/08/28 05:07:12;;;;;;;10.32;9.02;;;13.30;99.90;;;;;;2080441;28;20088;-70
2021/08/28 05:08:28;;;;;;;10.38;9.27;;;13.30;99.90;;;;;;2080441;28;20033;-70
2021/08/28 05:09:28;;;;;;;11.25;9.65;;;13.30;99.90;;;;;;2080193;28;20034;-70
2021/08/28 05:10:30;;;;;;;13.75;10.93;;;13.30;99.90;;;;;;2080997;28;20045;-70
2021/08/28 05:11:31;;;;;;;12.68;10.52;;;13.30;99.90;;;;;;2082289;28;20065;-70
2021/08/28 05:12:31;;;;;;;15.43;12.57;;;13.30;99.90;;;;;;2074357;28;20702;-70
2021/08/28 05:13:40;;;;;;;12.98;10.40;;;13.30;99.90;;;;;;2080942;28;20033;-70
2021/08/28 05:14:41;;;;;;;12.48;10.52;;;13.30;99.90;;;;;;2073123;28;20034;-70
2021/08/28 05:15:44;;;;;;;13.50;11.15;;;13.30;99.90;;;;;;2072477;28;20029;-70
2021/08/28 05:16:45;;;;;;;12.30;10.30;;;13.40;99.90;;;;;;2080519;28;20045;-70
2021/08/28 05:18:05;;;;;;;14.60;11.85;;;13.30;99.90;;;;;;2076563;28;20025;-70
2021/08/28 05:19:07;;;;;;;15.85;11.57;;;13.30;99.90;;;;;;2081381;28;20024;-70
2021/08/28 05:20:09;;;;;;;15.10;12.10;;;13.30;99.90;;;;;;2073214;28;20056;-70
2021/08/28 05:21:23;;;;;;;14.68;11.63;;;13.30;99.90;;;;;;2083165;28;20029;-69
2021/08/28 05:22:52;;;;;;;12.45;10.70;;;13.30;99.90;;;;;;2082309;28;20030;-69
2021/08/28 05:24:22;;;;;;;12.30;9.85;;;13.30;99.90;;;;;;2078035;28;20037;-70
2021/08/28 05:25:25;;;;;;;13.65;11.57;;;13.30;99.90;;;;;;2084420;28;20037;-70
2021/08/28 05:26:26;;;;;;;11.90;9.95;;;13.40;99.90;;;;;;2090969;28;20085;-69
2021/08/28 05:27:27;;;;;;;11.93;9.98;;;13.40;99.90;;;;;;2082751;28;20018;-70
2021/08/28 05:28:28;;;;;;;12.25;10.48;;;13.40;99.90;;;;;;2082182;28;20022;-70
2021/08/28 05:29:28;;;;;;;14.55;11.88;;;13.40;99.90;;;;;;2091046;28;20018;-70
2021/08/28 05:30:29;;;;;;;13.00;10.52;;;13.50;99.90;;;;;;2082876;28;20009;-71
2021/08/28 05:31:30;;;;;;;12.25;10.55;;;13.50;99.90;;;;;;2082320;28;20040;-69
2021/08/28 05:32:31;;;;;;;13.35;11.60;;;13.50;99.90;;;;;;2072517;28;20144;-71
2021/08/28 05:33:32;;;;;;;13.13;11.25;;;13.50;99.90;;;;;;2071935;28;20034;-69
2021/08/28 05:34:34;;;;;;;13.30;10.20;;;13.50;99.90;;;;;;2072102;28;20488;-69
2021/08/28 05:35:53;;;;;;;11.60;9.18;;;13.60;99.90;;;;;;2083161;28;20517;-70
2021/08/28 05:37:00;;;;;;;13.15;11.73;;;13.70;99.90;;;;;;2080052;28;20030;-70
2021/08/28 05:38:21;;;;;;;13.75;10.95;;;13.60;99.90;;;;;;2084131;28;20505;-71
2021/08/28 05:39:23;;;;;;;12.88;10.95;;;13.60;99.90;;;;;;2082523;28;20029;-70